createdAt,value
2019-06-26T00:00:16.575Z,56.03
2019-06-26T00:02:51.683Z,55.84
2019-06-26T00:05:25.695Z,55.96
2019-06-26T00:07:59.933Z,56.12
2019-06-26T00:10:33.904Z,56.66
2019-06-26T00:13:07.713Z,57.06
2019-06-26T00:15:41.764Z,56.86
2019-06-26T00:18:15.792Z,57.09
2019-06-26T00:20:50.225Z,57.26
2019-06-26T00:23:24.097Z,57.37
2019-06-26T00:25:58.644Z,57.34
2019-06-26T00:28:33.056Z,57.38
2019-06-26T00:31:06.986Z,57.23
2019-06-26T00:33:40.939Z,57.18
2019-06-26T00:36:15.105Z,57.32
2019-06-26T00:38:49.344Z,57.61
2019-06-26T00:41:23.367Z,57.86
2019-06-26T00:43:57.414Z,58.14
2019-06-26T00:46:33.091Z,58.29
2019-06-26T00:49:06.924Z,58.23
2019-06-26T00:51:40.805Z,57.96
2019-06-26T00:54:15.330Z,58.07
2019-06-26T00:56:49.311Z,58.23
2019-06-26T00:59:23.368Z,58.32
2019-06-26T01:01:57.478Z,58.02
2019-06-26T01:04:36.255Z,58.19
2019-06-26T01:07:11.385Z,58.29
2019-06-26T01:09:45.591Z,58.48
2019-06-26T01:12:20.055Z,58.68
2019-06-26T01:14:54.857Z,58.92
2019-06-26T01:17:28.856Z,59.09
2019-06-26T01:20:02.960Z,59.21
2019-06-26T01:22:37.203Z,59.34
2019-06-26T01:25:11.232Z,59.32
2019-06-26T01:27:45.436Z,59.29
2019-06-26T01:30:19.628Z,59.38
2019-06-26T01:32:53.663Z,59.24
2019-06-26T01:35:28.191Z,59.20
2019-06-26T01:38:02.634Z,59.29
2019-06-26T01:40:36.778Z,59.33
2019-06-26T01:43:11.133Z,59.31
2019-06-26T01:45:45.355Z,59.19
2019-06-26T01:48:19.378Z,59.49
2019-06-26T01:50:54.747Z,59.49
2019-06-26T01:53:29.118Z,59.32
2019-06-26T01:56:03.479Z,59.23
2019-06-26T01:58:38.097Z,59.21
2019-06-26T02:01:12.320Z,59.27
2019-06-26T02:03:46.354Z,59.27
2019-06-26T02:06:20.535Z,59.44
2019-06-26T02:08:54.702Z,59.65
2019-06-26T02:11:29.872Z,59.79
2019-06-26T02:14:04.042Z,59.86
2019-06-26T02:16:41.692Z,60.01
2019-06-26T02:19:25.249Z,59.87
2019-06-26T02:22:03.656Z,59.79
2019-06-26T02:24:38.288Z,59.69
2019-06-26T02:27:15.278Z,59.59
2019-06-26T02:29:51.357Z,59.60
2019-06-26T02:32:26.143Z,59.38
2019-06-26T02:35:01.960Z,59.15
2019-06-26T02:37:38.559Z,59.12
2019-06-26T02:40:15.159Z,59.15
2019-06-26T02:42:49.704Z,59.05
2019-06-26T02:45:25.332Z,59.05
2019-06-26T02:48:01.636Z,59.00
2019-06-26T02:50:37.237Z,59.02
2019-06-26T02:53:13.051Z,59.11
2019-06-26T02:55:47.582Z,59.13
2019-06-26T02:58:24.249Z,59.08
2019-06-26T03:01:07.998Z,59.10
2019-06-26T03:03:41.870Z,59.18
2019-06-26T03:06:16.687Z,59.35
2019-06-26T03:08:50.975Z,59.52
2019-06-26T03:11:27.080Z,59.57
2019-06-26T03:14:03.741Z,59.45
2019-06-26T03:16:38.720Z,59.26
2019-06-26T03:19:13.250Z,59.03
2019-06-26T03:21:49.921Z,58.93
2019-06-26T03:24:25.946Z,58.68
2019-06-26T03:27:00.091Z,58.57
2019-06-26T03:29:34.169Z,58.44
2019-06-26T03:32:08.384Z,58.26
2019-06-26T03:34:43.694Z,57.96
2019-06-26T03:37:17.646Z,57.74
2019-06-26T03:39:52.784Z,57.69
2019-06-26T03:42:26.693Z,57.78
2019-06-26T03:45:00.771Z,57.82
2019-06-26T03:47:34.864Z,57.82
2019-06-26T03:50:08.923Z,57.74
2019-06-26T03:52:42.890Z,57.82
2019-06-26T03:55:17.393Z,57.65
2019-06-26T03:57:51.445Z,57.13
2019-06-26T04:00:32.293Z,56.90
2019-06-26T04:03:06.457Z,56.76
2019-06-26T04:05:40.530Z,56.75
2019-06-26T04:08:14.822Z,56.55
2019-06-26T04:10:48.843Z,56.38
2019-06-26T04:13:23.365Z,56.21
2019-06-26T04:15:58.844Z,55.97
2019-06-26T04:18:32.918Z,55.86
2019-06-26T04:21:07.864Z,55.79
2019-06-26T04:23:41.879Z,55.92
2019-06-26T04:26:15.968Z,55.77
2019-06-26T04:28:50.028Z,55.53
2019-06-26T04:31:24.011Z,55.39
2019-06-26T04:33:58.097Z,55.37
2019-06-26T04:36:32.235Z,55.10
2019-06-26T04:39:07.555Z,54.83
2019-06-26T04:41:41.831Z,54.73
2019-06-26T04:44:15.892Z,54.63
2019-06-26T04:46:49.698Z,54.37
2019-06-26T04:49:23.759Z,54.26
2019-06-26T04:51:57.788Z,54.06
2019-06-26T04:54:31.981Z,53.60
2019-06-26T04:57:06.057Z,53.24
2019-06-26T04:59:39.846Z,53.06
2019-06-26T05:02:14.203Z,52.71
2019-06-26T05:04:48.152Z,52.12
2019-06-26T05:07:22.103Z,51.17
2019-06-26T05:09:57.178Z,48.12
2019-06-26T05:12:31.181Z,46.92
2019-06-26T05:15:07.729Z,46.26
2019-06-26T05:17:43.305Z,45.30
2019-06-26T05:20:17.396Z,45.72
2019-06-26T05:22:51.488Z,46.38
2019-06-26T05:25:25.598Z,46.37
2019-06-26T05:27:59.541Z,45.91
2019-06-26T05:30:34.573Z,45.98
2019-06-26T05:33:08.674Z,44.77
2019-06-26T05:35:42.734Z,44.10
2019-06-26T05:38:16.650Z,43.17
2019-06-26T05:40:51.514Z,42.60
2019-06-26T05:43:27.236Z,42.50
2019-06-26T05:46:01.209Z,40.98
2019-06-26T05:48:35.255Z,39.93
2019-06-26T05:51:10.258Z,37.92
2019-06-26T05:53:44.373Z,36.54
2019-06-26T05:56:18.596Z,35.96
2019-06-26T05:58:52.517Z,35.37
2019-06-26T06:01:28.017Z,35.08
2019-06-26T06:04:02.547Z,34.99
2019-06-26T06:06:41.794Z,35.37
2019-06-26T06:09:13.299Z,35.22
2019-06-26T06:11:48.944Z,35.75
2019-06-26T06:14:23.134Z,36.13
2019-06-26T06:16:57.232Z,36.10
2019-06-26T06:19:30.901Z,35.18
2019-06-26T06:22:05.858Z,35.41
2019-06-26T06:24:40.085Z,34.69
2019-06-26T06:27:14.820Z,34.51
2019-06-26T06:29:48.762Z,34.79
2019-06-26T06:32:23.479Z,34.96
2019-06-26T06:34:57.505Z,34.29
2019-06-26T06:37:32.051Z,33.87
2019-06-26T06:40:08.442Z,34.55
2019-06-26T06:42:42.678Z,33.12
2019-06-26T06:45:16.797Z,32.38
2019-06-26T06:47:50.775Z,32.08
2019-06-26T06:50:25.695Z,32.55
2019-06-26T06:53:02.495Z,32.31
2019-06-26T06:55:38.007Z,32.12
2019-06-26T06:58:12.205Z,32.37
2019-06-26T07:00:46.411Z,32.35
2019-06-26T07:03:20.652Z,31.65
2019-06-26T07:05:56.597Z,30.75
2019-06-26T07:08:30.767Z,30.57
2019-06-26T07:11:05.157Z,29.51
2019-06-26T07:13:39.954Z,29.84
2019-06-26T07:16:14.070Z,30.58
2019-06-26T07:18:49.430Z,30.39
2019-06-26T07:21:23.982Z,30.88
2019-06-26T07:23:58.326Z,30.79
2019-06-26T07:26:32.394Z,30.52
2019-06-26T07:29:06.638Z,30.57
2019-06-26T07:31:40.476Z,30.51
2019-06-26T07:34:14.631Z,30.56
2019-06-26T07:36:49.664Z,30.61
2019-06-26T07:39:23.594Z,31.04
2019-06-26T07:41:57.582Z,30.66
2019-06-26T07:44:31.909Z,30.56
2019-06-26T07:47:21.864Z,31.18
2019-06-26T07:49:41.688Z,30.73
2019-06-26T07:52:16.702Z,30.63
2019-06-26T07:54:50.711Z,30.38
2019-06-26T07:57:24.534Z,30.19
2019-06-26T07:59:58.501Z,29.30
2019-06-26T08:02:34.096Z,29.24
2019-06-26T08:05:09.942Z,29.47
2019-06-26T08:07:47.112Z,28.68
2019-06-26T08:10:20.979Z,29.01
2019-06-26T08:12:55.941Z,30.02
2019-06-26T08:15:30.108Z,29.49
2019-06-26T08:18:04.424Z,29.60
2019-06-26T08:20:55.051Z,27.63
2019-06-26T08:23:16.966Z,26.87
2019-06-26T08:25:51.022Z,27.96
2019-06-26T08:28:25.064Z,28.05
2019-06-26T08:30:59.378Z,27.89
2019-06-26T08:33:33.733Z,28.42
2019-06-26T08:36:07.689Z,28.35
2019-06-26T08:38:41.767Z,28.25
2019-06-26T08:41:15.789Z,28.38
2019-06-26T08:43:49.941Z,28.46
2019-06-26T08:46:25.224Z,29.06
2019-06-26T08:49:00.303Z,29.29
2019-06-26T08:51:34.425Z,29.31
2019-06-26T08:54:09.504Z,28.85
2019-06-26T08:56:43.426Z,28.64
2019-06-26T08:59:17.828Z,27.60
2019-06-26T09:01:51.784Z,27.60
2019-06-26T09:04:25.755Z,27.08
2019-06-26T09:07:00.102Z,27.04
2019-06-26T09:09:52.636Z,27.68
2019-06-26T09:12:31.341Z,27.95
2019-06-26T09:15:07.008Z,27.98
2019-06-26T09:17:40.977Z,27.44
2019-06-26T09:20:34.263Z,27.39
2019-06-26T09:23:26.699Z,26.62
2019-06-26T09:26:02.094Z,26.97
2019-06-26T09:28:36.326Z,26.70
2019-06-26T09:31:12.053Z,26.38
2019-06-26T09:33:46.388Z,26.20
2019-06-26T09:36:21.291Z,26.35
2019-06-26T09:38:58.009Z,26.19
2019-06-26T09:41:31.979Z,26.08
2019-06-26T09:44:06.029Z,25.95
2019-06-26T09:46:40.287Z,25.51
2019-06-26T09:49:14.267Z,26.00
2019-06-26T09:51:57.940Z,26.38
2019-06-26T09:54:32.518Z,25.83
2019-06-26T09:57:07.360Z,25.40
2019-06-26T09:59:42.315Z,25.48
2019-06-26T10:02:19.606Z,25.17
2019-06-26T10:04:54.630Z,24.55
2019-06-26T10:07:28.805Z,24.59
2019-06-26T10:10:03.053Z,24.22
2019-06-26T10:12:37.484Z,24.24
2019-06-26T10:15:11.824Z,24.00
2019-06-26T10:17:47.174Z,24.04
2019-06-26T10:20:22.297Z,24.77
2019-06-26T10:22:57.750Z,23.85
2019-06-26T10:25:31.714Z,23.40
2019-06-26T10:28:05.778Z,23.21
2019-06-26T10:30:41.185Z,22.98
2019-06-26T10:33:15.177Z,23.19
2019-06-26T10:35:49.721Z,22.97
2019-06-26T10:38:25.556Z,23.11
2019-06-26T10:40:59.784Z,22.90
2019-06-26T10:43:33.693Z,23.48
2019-06-26T10:46:15.134Z,23.87
2019-06-26T10:48:52.523Z,23.77
2019-06-26T10:51:29.449Z,23.84
2019-06-26T10:54:07.159Z,24.28
2019-06-26T10:56:41.783Z,24.36
2019-06-26T10:59:17.160Z,24.05
2019-06-26T11:01:51.271Z,23.80
2019-06-26T11:04:25.873Z,23.31
2019-06-26T11:07:00.451Z,23.27
2019-06-26T11:09:35.301Z,23.46
2019-06-26T11:12:09.722Z,23.21
2019-06-26T11:14:44.178Z,22.99
2019-06-26T11:17:19.968Z,23.68
2019-06-26T11:19:55.697Z,23.22
2019-06-26T11:22:30.074Z,23.41
2019-06-26T11:25:05.200Z,23.01
2019-06-26T11:27:39.909Z,23.51
2019-06-26T11:30:14.303Z,23.33
2019-06-26T11:32:49.020Z,22.94
2019-06-26T11:35:23.860Z,22.67
2019-06-26T11:37:57.122Z,22.45
2019-06-26T11:40:30.741Z,22.37
2019-06-26T11:43:04.532Z,22.63
2019-06-26T11:45:38.725Z,22.27
2019-06-26T11:48:12.848Z,22.49
2019-06-26T11:50:47.994Z,21.86
2019-06-26T11:53:22.705Z,21.59
2019-06-26T11:55:56.671Z,21.95
2019-06-26T11:58:30.754Z,21.92
2019-06-26T12:01:04.851Z,21.83
2019-06-26T12:03:39.218Z,22.41
2019-06-26T12:06:19.049Z,22.41
2019-06-26T12:08:49.401Z,22.66
2019-06-26T12:11:39.860Z,23.05
2019-06-26T12:14:14.833Z,23.04
2019-06-26T12:17:05.850Z,23.22
2019-06-26T12:19:55.787Z,22.78
2019-06-26T12:22:29.784Z,22.80
2019-06-26T12:25:03.768Z,22.50
2019-06-26T12:27:53.568Z,22.71
2019-06-26T12:30:27.569Z,22.44
2019-06-26T12:33:17.375Z,22.87
2019-06-26T12:36:07.295Z,22.11
2019-06-26T12:38:42.299Z,21.99
2019-06-26T12:41:32.370Z,21.73
2019-06-26T12:44:06.381Z,21.72
2019-06-26T12:46:40.625Z,21.53
2019-06-26T12:49:14.408Z,21.61
2019-06-26T12:51:48.380Z,22.02
2019-06-26T12:54:38.085Z,21.67
2019-06-26T12:57:12.682Z,21.75
2019-06-26T12:59:57.212Z,21.30
2019-06-26T13:02:39.050Z,20.93
2019-06-26T13:05:13.096Z,21.21
2019-06-26T13:07:47.285Z,21.07
2019-06-26T13:10:20.982Z,20.40
2019-06-26T13:12:54.776Z,20.62
2019-06-26T13:15:28.789Z,19.96
2019-06-26T13:18:03.463Z,19.86
2019-06-26T13:20:51.711Z,19.70
2019-06-26T13:23:14.854Z,19.50
2019-06-26T13:25:48.657Z,19.26
2019-06-26T13:28:22.220Z,19.60
2019-06-26T13:30:55.806Z,19.26
2019-06-26T13:33:30.639Z,19.18
2019-06-26T13:36:04.858Z,19.36
2019-06-26T13:38:40.260Z,19.19
2019-06-26T13:41:16.002Z,19.21
2019-06-26T13:43:50.275Z,19.54
2019-06-26T13:46:24.684Z,20.30
2019-06-26T13:48:57.960Z,19.85
2019-06-26T13:51:33.426Z,19.47
2019-06-26T13:54:07.400Z,19.87
2019-06-26T13:56:42.006Z,19.76
2019-06-26T13:59:16.160Z,20.14
2019-06-26T14:01:50.973Z,20.20
2019-06-26T14:04:25.417Z,20.85
2019-06-26T14:06:59.380Z,21.09
2019-06-26T14:09:33.040Z,20.57
2019-06-26T14:12:07.071Z,20.49
2019-06-26T14:14:56.782Z,20.48
2019-06-26T14:17:17.216Z,20.60
2019-06-26T14:19:51.254Z,20.75
2019-06-26T14:22:25.126Z,20.58
2019-06-26T14:25:00.160Z,20.39
2019-06-26T14:27:34.176Z,20.42
2019-06-26T14:30:09.532Z,20.45
2019-06-26T14:32:44.282Z,20.66
2019-06-26T14:35:18.501Z,20.70
2019-06-26T14:37:52.422Z,20.37
2019-06-26T14:40:26.700Z,20.35
2019-06-26T14:43:00.669Z,20.88
2019-06-26T14:45:34.649Z,20.99
2019-06-26T14:48:08.844Z,21.22
2019-06-26T14:50:44.222Z,21.35
2019-06-26T14:53:17.584Z,21.30
2019-06-26T14:55:51.511Z,21.00
2019-06-26T14:58:25.935Z,21.12
2019-06-26T15:00:59.583Z,21.44
2019-06-26T15:03:33.338Z,20.33
2019-06-26T15:06:16.248Z,20.47
2019-06-26T15:08:42.747Z,20.39
2019-06-26T15:11:16.793Z,20.61
2019-06-26T15:13:57.023Z,20.18
2019-06-26T15:16:31.218Z,19.99
2019-06-26T15:19:05.095Z,19.68
2019-06-26T15:21:40.094Z,19.94
2019-06-26T15:24:14.177Z,20.19
2019-06-26T15:26:48.232Z,20.18
2019-06-26T15:29:22.011Z,19.88
2019-06-26T15:31:56.445Z,19.16
2019-06-26T15:34:31.048Z,19.34
2019-06-26T15:37:04.942Z,18.79
2019-06-26T15:39:39.473Z,18.79
2019-06-26T15:42:15.223Z,18.79
2019-06-26T15:44:49.115Z,18.41
2019-06-26T15:47:23.007Z,18.51
2019-06-26T15:49:56.865Z,18.71
2019-06-26T15:52:31.701Z,18.71
2019-06-26T15:55:08.557Z,19.01
2019-06-26T15:57:42.467Z,19.30
2019-06-26T16:00:16.649Z,19.47
2019-06-26T16:02:50.984Z,19.20
2019-06-26T16:05:25.027Z,19.18
2019-06-26T16:07:59.878Z,19.86
2019-06-26T16:10:34.723Z,20.06
2019-06-26T16:13:09.834Z,20.00
2019-06-26T16:15:43.862Z,20.20
2019-06-26T16:18:22.547Z,20.40
2019-06-26T16:20:57.111Z,20.64
2019-06-26T16:23:32.256Z,20.64
2019-06-26T16:26:23.090Z,20.46
2019-06-26T16:29:13.170Z,20.16
2019-06-26T16:31:47.425Z,20.31
2019-06-26T16:34:20.734Z,19.47
2019-06-26T16:36:54.599Z,19.36
2019-06-26T16:39:28.965Z,19.88
2019-06-26T16:42:03.042Z,19.64
2019-06-26T16:44:36.902Z,19.54
2019-06-26T16:47:10.908Z,19.47
2019-06-26T16:49:45.347Z,19.81
2019-06-26T16:52:19.487Z,19.79
2019-06-26T16:54:53.824Z,19.52
2019-06-26T16:57:27.885Z,19.49
2019-06-26T17:00:09.420Z,19.48
2019-06-26T17:03:00.736Z,19.35
2019-06-26T17:05:34.722Z,19.08
2019-06-26T17:08:09.800Z,19.08
2019-06-26T17:10:43.927Z,18.48
2019-06-26T17:13:18.354Z,18.79
2019-06-26T17:15:52.395Z,18.43
2019-06-26T17:18:26.633Z,18.50
2019-06-26T17:21:01.761Z,18.48
2019-06-26T17:23:36.652Z,18.65
2019-06-26T17:26:11.186Z,18.88
2019-06-26T17:28:46.181Z,19.09
2019-06-26T17:31:20.344Z,19.01
2019-06-26T17:33:54.577Z,19.33
2019-06-26T17:36:29.088Z,19.81
2019-06-26T17:39:03.193Z,20.06
2019-06-26T17:41:37.446Z,20.30
2019-06-26T17:44:11.619Z,20.70
2019-06-26T17:46:45.317Z,21.20
2019-06-26T17:49:19.605Z,21.69
2019-06-26T17:51:53.680Z,22.23
2019-06-26T17:54:30.519Z,22.92
2019-06-26T17:57:10.195Z,23.62
2019-06-26T17:59:44.302Z,23.96
2019-06-26T18:02:18.229Z,24.49
2019-06-26T18:04:53.014Z,25.26
2019-06-26T18:10:16.339Z,26.62
2019-06-26T18:12:51.852Z,26.71
2019-06-26T18:15:26.027Z,27.14
2019-06-26T18:17:59.712Z,28.08
2019-06-26T18:20:33.791Z,28.36
2019-06-26T18:23:08.110Z,29.03
2019-06-26T18:25:53.873Z,29.27
2019-06-26T18:28:23.427Z,29.52
2019-06-26T18:30:57.761Z,29.93
2019-06-26T18:33:32.796Z,30.16
2019-06-26T18:36:07.029Z,31.42
2019-06-26T18:38:41.352Z,32.57
2019-06-26T18:41:18.888Z,33.51
2019-06-26T18:43:54.032Z,34.00
2019-06-26T18:46:28.791Z,34.73
2019-06-26T18:49:04.284Z,35.79
2019-06-26T18:51:39.506Z,35.41
2019-06-26T18:54:14.119Z,36.04
2019-06-26T18:56:48.370Z,36.66
2019-06-26T18:59:22.631Z,37.22
2019-06-26T19:01:56.687Z,37.67
2019-06-26T19:04:31.419Z,38.47
2019-06-26T19:07:06.810Z,40.16
2019-06-26T19:09:42.109Z,41.07
2019-06-26T19:12:17.154Z,41.70
2019-06-26T19:14:53.081Z,42.52
2019-06-26T19:17:26.827Z,43.00
2019-06-26T19:20:01.363Z,43.45
2019-06-26T19:22:35.565Z,43.86
2019-06-26T19:25:09.922Z,43.87
2019-06-26T19:27:45.072Z,43.40
2019-06-26T19:30:19.950Z,43.06
2019-06-26T19:32:54.167Z,43.31
2019-06-26T19:35:29.233Z,44.12
2019-06-26T19:38:03.927Z,44.77
2019-06-26T19:40:39.089Z,45.30
2019-06-26T19:43:13.354Z,45.33
2019-06-26T19:45:47.258Z,43.88
2019-06-26T19:48:26.415Z,43.53
2019-06-26T19:51:00.707Z,42.47
2019-06-26T19:53:34.769Z,41.80
2019-06-26T19:56:08.814Z,41.66
2019-06-26T19:58:43.924Z,41.72
2019-06-26T20:01:19.924Z,41.68
2019-06-26T20:03:55.805Z,42.03
2019-06-26T20:06:31.644Z,41.84
2019-06-26T20:09:09.026Z,42.42
2019-06-26T20:11:45.701Z,42.76
2019-06-26T20:14:23.559Z,43.31
2019-06-26T20:17:00.110Z,43.88
2019-06-26T20:19:35.895Z,44.23
2019-06-26T20:22:11.376Z,44.30
2019-06-26T20:24:46.920Z,44.38
2019-06-26T20:27:22.913Z,44.74
2019-06-26T20:29:58.859Z,44.89
2019-06-26T20:32:33.925Z,44.86
2019-06-26T20:35:09.349Z,45.08
2019-06-26T20:37:44.138Z,45.34
2019-06-26T20:40:18.240Z,45.62
2019-06-26T20:42:51.998Z,46.74
2019-06-26T20:45:26.628Z,48.19
2019-06-26T20:48:00.965Z,47.66
2019-06-26T20:53:20.079Z,46.38
2019-06-26T20:55:54.168Z,46.53
2019-06-26T20:58:29.410Z,46.68
2019-06-26T21:01:03.336Z,46.73
2019-06-26T21:03:37.529Z,46.95
2019-06-26T21:06:12.137Z,46.91
2019-06-26T21:09:05.275Z,47.24
2019-06-26T21:11:39.862Z,49.30
2019-06-26T21:14:13.975Z,50.01
2019-06-26T21:16:48.248Z,51.97
2019-06-26T21:19:22.310Z,50.70
2019-06-26T21:21:55.821Z,50.44
2019-06-26T21:24:29.417Z,49.79
2019-06-26T21:27:04.313Z,48.89
2019-06-26T21:29:38.049Z,50.90
2019-06-26T21:32:12.553Z,50.42
2019-06-26T21:34:46.403Z,51.30
2019-06-26T21:37:20.488Z,51.20
2019-06-26T21:39:54.580Z,50.34
2019-06-26T21:42:29.413Z,48.76
2019-06-26T21:45:03.129Z,48.94
2019-06-26T21:47:37.011Z,48.84
2019-06-26T21:50:11.263Z,49.08
2019-06-26T21:52:45.331Z,49.57
2019-06-26T21:55:33.632Z,49.88
2019-06-26T21:58:14.141Z,50.10
2019-06-26T22:01:06.196Z,50.28
2019-06-26T22:03:58.506Z,50.64
2019-06-26T22:06:35.256Z,50.86
2019-06-26T22:09:12.689Z,51.04
2019-06-26T22:11:47.560Z,51.13
2019-06-26T22:14:21.574Z,51.27
2019-06-26T22:16:55.740Z,51.66
2019-06-26T22:19:30.794Z,51.65
2019-06-26T22:22:04.805Z,52.12
2019-06-26T22:24:39.054Z,52.43
2019-06-26T22:27:13.236Z,52.30
2019-06-26T22:29:47.317Z,52.59
2019-06-26T22:32:21.488Z,52.66
2019-06-26T22:34:56.318Z,52.68
2019-06-26T22:37:29.920Z,52.99
2019-06-26T22:40:05.211Z,53.08
2019-06-26T22:42:39.472Z,53.12
2019-06-26T22:45:13.448Z,53.14
2019-06-26T22:47:47.476Z,53.10
2019-06-26T22:50:21.612Z,53.13
2019-06-26T22:52:55.885Z,53.05
2019-06-26T22:55:30.240Z,53.38
2019-06-26T22:58:05.011Z,52.96
2019-06-26T23:01:33.855Z,53.03
2019-06-26T23:04:20.373Z,53.06
2019-06-26T23:06:55.045Z,53.32
2019-06-26T23:09:28.844Z,53.81
2019-06-26T23:12:03.674Z,53.75
2019-06-26T23:14:37.373Z,53.55
2019-06-26T23:17:11.820Z,53.53
2019-06-26T23:19:45.687Z,53.07
2019-06-26T23:22:20.220Z,53.05
2019-06-26T23:24:54.410Z,53.10
2019-06-26T23:27:28.553Z,52.55
2019-06-26T23:30:03.679Z,52.76
2019-06-26T23:32:37.653Z,52.87
2019-06-26T23:35:11.573Z,52.78
2019-06-26T23:37:45.407Z,52.67
2019-06-26T23:40:20.609Z,52.73
2019-06-26T23:42:55.458Z,52.79
2019-06-26T23:45:29.357Z,52.70
2019-06-26T23:48:04.536Z,52.67
2019-06-26T23:50:39.426Z,52.56
2019-06-26T23:53:13.851Z,52.59
2019-06-26T23:55:47.979Z,52.79
2019-06-26T23:58:21.888Z,53.06
